Time;durP1;ratioP1;P1;durP2;ratioP2;P2;SDS_P1;SDS_P2;PMS_P1;PMS_P2;Temp;Humidity;BMP_temperature;BMP_pressure;BME280_temperature;BME280_humidity;BME280_pressure;Samples;Min_cycle;Max_cycle;Signal;HPM_P1;HPM_P2
2023/08/11 00:00:28;;;;;;;2.92;1.70;;;17.00;99.90;;;;;;5008996;28;20236;-65
2023/08/11 00:02:55;;;;;;;5.43;2.35;;;17.00;99.90;;;;;;5018706;28;20228;-66
2023/08/11 00:05:23;;;;;;;4.63;2.20;;;17.10;99.90;;;;;;5027485;28;20201;-65
2023/08/11 00:07:50;;;;;;;4.13;2.03;;;17.00;99.90;;;;;;5023913;28;20353;-65
2023/08/11 00:10:17;;;;;;;3.17;1.65;;;17.00;99.90;;;;;;5028505;28;20902;-65
2023/08/11 00:12:44;;;;;;;4.05;1.73;;;17.00;99.90;;;;;;5032045;28;20212;-66
2023/08/11 00:15:13;;;;;;;3.58;2.03;;;17.10;99.90;;;;;;5012647;28;21210;-65
2023/08/11 00:17:40;;;;;;;3.25;2.22;;;17.10;99.90;;;;;;5033021;28;20244;-65
2023/08/11 00:20:08;;;;;;;2.70;1.98;;;17.00;99.90;;;;;;5023215;28;20201;-65
2023/08/11 00:22:35;;;;;;;4.32;2.22;;;17.00;99.90;;;;;;5033984;28;20209;-65
2023/08/11 00:25:02;;;;;;;2.67;2.20;;;17.00;99.90;;;;;;5022070;28;20202;-65
2023/08/11 00:27:29;;;;;;;2.78;2.00;;;17.00;99.90;;;;;;5031625;28;20312;-65
2023/08/11 00:29:57;;;;;;;2.50;2.20;;;16.80;99.90;;;;;;5019096;28;20382;-65
2023/08/11 00:32:26;;;;;;;3.58;2.70;;;17.00;99.90;;;;;;5025674;28;20205;-65
2023/08/11 00:34:52;;;;;;;5.53;2.20;;;17.00;99.90;;;;;;5023797;28;20201;-66
2023/08/11 00:37:19;;;;;;;3.90;2.53;;;17.00;99.90;;;;;;5031594;28;20228;-65
2023/08/11 00:39:46;;;;;;;3.38;2.35;;;17.00;99.90;;;;;;5021638;28;20210;-70
2023/08/11 00:42:13;;;;;;;4.30;2.30;;;16.90;99.90;;;;;;5030284;28;20205;-65
2023/08/11 00:44:41;;;;;;;5.10;2.40;;;16.90;99.90;;;;;;5032792;28;20567;-65
2023/08/11 00:47:08;;;;;;;2.28;2.08;;;16.90;99.90;;;;;;5007342;28;20379;-65
2023/08/11 00:49:36;;;;;;;3.33;2.35;;;16.90;99.90;;;;;;5029957;28;20677;-65
2023/08/11 00:52:04;;;;;;;3.53;2.42;;;17.00;99.90;;;;;;5022546;28;20210;-65
2023/08/11 00:54:31;;;;;;;3.40;2.15;;;16.90;99.90;;;;;;5032008;28;21552;-65
2023/08/11 00:56:58;;;;;;;3.15;2.53;;;16.90;99.90;;;;;;5022323;28;20978;-66
2023/08/11 00:59:25;;;;;;;2.83;2.05;;;17.00;99.90;;;;;;5032076;28;20223;-65
2023/08/11 01:01:52;;;;;;;4.60;2.42;;;17.00;99.90;;;;;;5009478;28;20213;-65
2023/08/11 01:04:19;;;;;;;4.60;2.40;;;17.00;99.90;;;;;;5031457;28;20750;-65
2023/08/11 01:06:52;;;;;;;3.25;2.42;;;16.90;99.90;;;;;;5028769;28;20205;-65
2023/08/11 01:09:31;;;;;;;4.18;2.33;;;17.00;99.90;;;;;;5028704;28;20230;-65
2023/08/11 01:12:09;;;;;;;3.90;2.15;;;16.90;99.90;;;;;;5020468;28;20205;-66
2023/08/11 01:14:43;;;;;;;3.58;1.95;;;17.00;99.90;;;;;;5035520;28;20201;-65
2023/08/11 01:17:13;;;;;;;4.82;2.30;;;17.00;99.90;;;;;;5010423;28;20229;-65
2023/08/11 01:19:41;;;;;;;3.03;2.17;;;16.90;99.90;;;;;;5032607;28;20201;-65
2023/08/11 01:22:14;;;;;;;3.55;2.17;;;16.90;99.90;;;;;;5020773;28;20213;-65
2023/08/11 01:24:44;;;;;;;2.13;1.92;;;16.90;99.90;;;;;;5037222;28;20194;-65
2023/08/11 01:27:11;;;;;;;4.45;2.00;;;16.90;99.90;;;;;;5027358;28;20208;-65
2023/08/11 01:29:38;;;;;;;2.05;1.73;;;16.90;99.90;;;;;;5036332;28;20201;-65
2023/08/11 01:32:06;;;;;;;4.47;1.90;;;16.90;99.90;;;;;;5014560;28;20206;-65
2023/08/11 01:34:32;;;;;;;4.63;2.15;;;16.90;99.90;;;;;;5029892;28;20208;-65
2023/08/11 01:37:00;;;;;;;2.50;1.95;;;16.90;99.90;;;;;;5032238;28;20206;-66
2023/08/11 01:39:27;;;;;;;4.47;2.05;;;16.90;99.90;;;;;;5037775;28;20226;-65
2023/08/11 01:41:56;;;;;;;3.13;2.10;;;17.00;99.90;;;;;;5022547;28;20583;-65
2023/08/11 01:44:25;;;;;;;2.50;2.05;;;16.90;99.90;;;;;;5035512;28;20201;-65
2023/08/11 01:46:55;;;;;;;3.03;2.20;;;16.90;99.90;;;;;;5025290;28;20198;-65
2023/08/11 01:49:23;;;;;;;7.20;2.05;;;16.90;99.90;;;;;;5028934;28;20225;-65
2023/08/11 01:51:50;;;;;;;3.45;1.58;;;16.90;99.90;;;;;;5033073;28;20197;-65
2023/08/11 01:54:17;;;;;;;3.10;2.33;;;16.90;99.90;;;;;;5025866;28;20223;-65
2023/08/11 01:56:45;;;;;;;7.18;1.73;;;16.90;99.90;;;;;;5027613;28;20213;-67
2023/08/11 01:59:16;;;;;;;6.25;1.88;;;16.90;99.90;;;;;;5034110;28;20201;-65
2023/08/11 02:01:43;;;;;;;1.95;1.73;;;16.80;99.90;;;;;;5034801;28;20222;-66
2023/08/11 02:04:10;;;;;;;3.03;2.20;;;16.90;99.90;;;;;;5012235;28;20236;-65
2023/08/11 02:06:39;;;;;;;5.38;2.17;;;16.90;99.90;;;;;;5035941;28;21019;-66
2023/08/11 02:09:08;;;;;;;3.53;2.15;;;16.90;99.90;;;;;;5022779;28;20237;-65
2023/08/11 02:11:35;;;;;;;3.72;2.20;;;16.90;99.90;;;;;;5032213;28;20217;-65
2023/08/11 02:14:02;;;;;;;2.30;1.90;;;16.80;99.90;;;;;;5020074;28;20225;-65
2023/08/11 02:16:31;;;;;;;2.42;2.00;;;16.80;99.90;;;;;;5033090;28;20578;-65
2023/08/11 02:18:57;;;;;;;5.20;2.20;;;16.80;99.90;;;;;;5013393;28;20233;-65
2023/08/11 02:21:24;;;;;;;2.95;2.00;;;16.80;99.90;;;;;;5031889;28;20198;-65
2023/08/11 02:23:51;;;;;;;3.67;2.10;;;16.80;99.90;;;;;;5030182;28;20201;-65
2023/08/11 02:26:18;;;;;;;3.15;1.90;;;16.90;99.90;;;;;;5032322;28;20239;-65
2023/08/11 02:28:45;;;;;;;3.80;2.30;;;16.80;99.90;;;;;;5022833;28;20222;-65
2023/08/11 02:31:12;;;;;;;2.70;2.13;;;16.80;99.90;;;;;;5030851;28;20197;-65
2023/08/11 02:33:40;;;;;;;5.47;2.05;;;16.80;99.90;;;;;;5016876;28;20205;-66
2023/08/11 02:36:07;;;;;;;4.97;1.83;;;16.80;99.90;;;;;;5030798;28;20206;-65
2023/08/11 02:38:34;;;;;;;3.75;1.95;;;16.90;99.90;;;;;;5036630;28;20670;-65
2023/08/11 02:41:01;;;;;;;4.43;2.35;;;16.80;99.90;;;;;;5023544;28;20209;-65
2023/08/11 02:43:28;;;;;;;6.43;2.45;;;16.80;99.90;;;;;;5036876;28;20205;-65
2023/08/11 02:45:55;;;;;;;6.30;2.45;;;16.80;99.90;;;;;;5024285;28;20674;-65
2023/08/11 02:48:21;;;;;;;4.07;2.28;;;16.80;99.90;;;;;;5037757;28;20787;-65
2023/08/11 02:50:50;;;;;;;2.30;2.05;;;16.80;99.90;;;;;;5004043;28;20226;-66
2023/08/11 02:53:16;;;;;;;2.25;1.73;;;16.80;99.90;;;;;;5035124;28;20207;-65
2023/08/11 02:55:43;;;;;;;8.10;2.20;;;16.80;99.90;;;;;;5026936;28;20292;-65
2023/08/11 02:58:10;;;;;;;3.95;2.58;;;16.80;99.90;;;;;;5029795;28;20212;-65
2023/08/11 03:00:37;;;;;;;7.57;2.53;;;16.80;99.90;;;;;;5030542;28;20292;-65
2023/08/11 03:03:04;;;;;;;2.92;2.38;;;16.90;99.90;;;;;;5033170;28;20202;-65
2023/08/11 03:05:31;;;;;;;3.97;2.65;;;16.90;99.90;;;;;;5006457;28;20217;-65
2023/08/11 03:07:59;;;;;;;2.60;2.00;;;16.90;99.90;;;;;;5031585;28;20226;-65
2023/08/11 03:10:26;;;;;;;3.88;2.40;;;16.90;99.90;;;;;;5037775;28;20193;-65
2023/08/11 03:12:53;;;;;;;6.10;2.55;;;16.90;99.90;;;;;;5024543;28;20201;-65
2023/08/11 03:15:20;;;;;;;3.78;2.65;;;16.80;99.90;;;;;;5034125;28;20197;-65
2023/08/11 03:17:47;;;;;;;3.45;2.30;;;16.90;99.90;;;;;;5034774;28;20198;-67
2023/08/11 03:20:15;;;;;;;5.70;2.63;;;16.90;99.90;;;;;;5015444;28;20244;-65
2023/08/11 03:22:43;;;;;;;2.40;2.20;;;16.90;99.90;;;;;;5026483;28;20201;-65
2023/08/11 03:25:12;;;;;;;7.07;2.50;;;16.80;99.90;;;;;;5032567;28;20208;-65
2023/08/11 03:27:41;;;;;;;3.17;2.10;;;16.80;99.90;;;;;;5028392;28;20202;-67
2023/08/11 03:30:10;;;;;;;5.38;2.03;;;16.80;99.90;;;;;;5029674;28;20210;-65
2023/08/11 03:32:38;;;;;;;6.93;2.88;;;16.80;99.90;;;;;;5033256;28;20189;-65
2023/08/11 03:35:05;;;;;;;3.08;2.40;;;16.80;99.90;;;;;;5010912;28;20886;-66
2023/08/11 03:37:32;;;;;;;5.00;2.70;;;16.80;99.90;;;;;;5025735;28;20205;-65
2023/08/11 03:39:59;;;;;;;3.47;2.63;;;16.80;99.90;;;;;;5031130;28;20272;-65
2023/08/11 03:42:27;;;;;;;2.97;2.72;;;16.80;99.90;;;;;;5028620;28;20216;-65
2023/08/11 03:44:54;;;;;;;3.83;2.40;;;16.90;99.90;;;;;;5027492;28;20210;-71
2023/08/11 03:47:21;;;;;;;4.28;2.65;;;16.90;99.90;;;;;;5033113;28;20197;-65
2023/08/11 03:49:48;;;;;;;3.95;3.20;;;16.80;99.90;;;;;;5030130;28;20228;-66
2023/08/11 03:52:15;;;;;;;6.00;2.80;;;16.90;99.90;;;;;;5007787;28;21399;-65
2023/08/11 03:54:41;;;;;;;4.18;3.20;;;16.70;99.90;;;;;;5033929;28;20201;-66
2023/08/11 03:57:08;;;;;;;7.35;3.00;;;16.90;99.90;;;;;;5030126;28;20293;-65
2023/08/11 03:59:36;;;;;;;4.68;2.88;;;16.90;99.90;;;;;;5028221;28;20209;-66
2023/08/11 04:02:03;;;;;;;5.10;2.38;;;16.90;99.90;;;;;;5027399;28;20209;-65
2023/08/11 04:04:30;;;;;;;7.03;3.15;;;16.90;99.90;;;;;;5035325;28;20225;-65
2023/08/11 04:06:58;;;;;;;5.85;2.55;;;16.90;99.90;;;;;;5012269;28;20856;-65
2023/08/11 04:09:25;;;;;;;3.20;2.40;;;16.90;99.90;;;;;;5024918;28;20218;-65
2023/08/11 04:11:51;;;;;;;4.07;2.30;;;16.90;99.90;;;;;;5027830;28;20201;-66
2023/08/11 04:14:18;;;;;;;4.47;2.58;;;16.90;99.90;;;;;;5025381;28;20197;-65
2023/08/11 04:16:47;;;;;;;3.03;2.47;;;16.90;99.90;;;;;;5030184;28;20202;-65
2023/08/11 04:19:14;;;;;;;3.70;2.38;;;16.90;99.90;;;;;;5032252;28;20651;-65
2023/08/11 04:21:41;;;;;;;8.27;3.22;;;16.90;99.90;;;;;;5026721;28;20282;-66
2023/08/11 04:24:08;;;;;;;6.45;3.05;;;16.90;99.90;;;;;;5009808;28;20198;-65
2023/08/11 04:26:35;;;;;;;3.92;3.15;;;16.90;99.90;;;;;;5033773;28;20213;-65
2023/08/11 04:29:03;;;;;;;3.40;2.72;;;16.90;99.90;;;;;;5021251;28;20227;-65
2023/08/11 04:31:31;;;;;;;6.57;3.40;;;16.90;99.90;;;;;;5028328;28;20661;-65
2023/08/11 04:33:59;;;;;;;6.85;3.55;;;17.00;99.90;;;;;;5025619;28;20194;-65
2023/08/11 04:36:26;;;;;;;5.00;3.22;;;17.00;99.90;;;;;;5031829;28;20201;-65
2023/08/11 04:38:53;;;;;;;6.45;3.15;;;17.00;99.90;;;;;;5006475;28;20217;-66
2023/08/11 04:41:20;;;;;;;5.43;3.33;;;17.00;99.90;;;;;;5029857;28;20193;-65
2023/08/11 04:43:46;;;;;;;5.50;3.88;;;17.00;99.90;;;;;;5029849;28;20193;-66
2023/08/11 04:46:14;;;;;;;6.47;3.33;;;17.00;99.90;;;;;;5021138;28;20197;-66
2023/08/11 04:48:40;;;;;;;4.20;3.70;;;17.00;99.90;;;;;;5035304;28;21635;-66
2023/08/11 04:51:08;;;;;;;5.78;4.10;;;17.10;99.90;;;;;;5032988;28;20563;-65
2023/08/11 04:53:35;;;;;;;7.78;4.22;;;17.00;99.90;;;;;;5010960;28;20210;-65
2023/08/11 04:56:03;;;;;;;9.10;4.43;;;16.90;99.90;;;;;;5031072;28;20263;-65
2023/08/11 04:58:30;;;;;;;8.27;4.05;;;17.00;99.90;;;;;;5037115;28;20209;-65
2023/08/11 05:00:56;;;;;;;4.90;3.83;;;17.00;99.90;;;;;;5035086;28;20231;-66
2023/08/11 05:03:23;;;;;;;4.57;3.30;;;17.10;99.90;;;;;;5024918;28;20233;-65
2023/08/11 05:05:51;;;;;;;5.25;3.80;;;17.00;99.90;;;;;;5032121;28;20244;-66
2023/08/11 05:08:19;;;;;;;6.10;3.35;;;17.00;99.90;;;;;;5037925;28;20732;-65
2023/08/11 05:10:46;;;;;;;5.45;4.03;;;17.10;99.90;;;;;;5007378;28;20236;-66
2023/08/11 05:13:12;;;;;;;10.55;4.10;;;17.10;99.90;;;;;;5034129;28;20199;-65
2023/08/11 05:15:40;;;;;;;9.30;4.20;;;17.10;99.90;;;;;;5032312;28;20217;-65
2023/08/11 05:18:07;;;;;;;4.18;3.78;;;17.10;99.90;;;;;;5037083;28;20229;-65
2023/08/11 05:20:34;;;;;;;4.45;3.65;;;17.10;99.90;;;;;;5027707;28;20212;-66
2023/08/11 05:23:00;;;;;;;5.55;3.65;;;17.10;99.90;;;;;;5035757;28;21087;-65
2023/08/11 05:25:29;;;;;;;6.30;4.18;;;17.10;99.90;;;;;;5015448;28;20691;-65
2023/08/11 05:27:55;;;;;;;9.18;4.30;;;17.20;99.90;;;;;;5026091;28;21207;-65
2023/08/11 05:30:27;;;;;;;5.13;3.95;;;17.20;99.90;;;;;;5031826;28;20236;-65
2023/08/11 05:32:54;;;;;;;6.10;4.22;;;17.20;99.90;;;;;;5031687;28;20608;-65
2023/08/11 05:35:21;;;;;;;6.55;5.13;;;17.20;99.90;;;;;;5031172;28;20205;-65
2023/08/11 05:37:48;;;;;;;8.23;3.92;;;17.30;99.90;;;;;;5035124;28;20202;-66
2023/08/11 05:40:16;;;;;;;7.80;3.70;;;17.30;99.90;;;;;;5015765;28;20213;-65
2023/08/11 05:42:44;;;;;;;6.00;4.35;;;17.50;99.90;;;;;;5025924;28;20205;-66
2023/08/11 05:45:11;;;;;;;5.78;3.67;;;17.30;99.90;;;;;;5036651;28;20202;-65
2023/08/11 05:47:39;;;;;;;4.50;3.72;;;;;;;;;;5033518;28;20283;-66
2023/08/11 05:50:07;;;;;;;4.60;4.10;;;17.40;99.90;;;;;;5024648;28;20820;-65
2023/08/11 05:52:33;;;;;;;9.80;4.85;;;17.40;99.90;;;;;;5035825;28;20202;-65
2023/08/11 05:55:00;;;;;;;5.47;4.45;;;17.40;99.90;;;;;;5031365;28;20383;-65
2023/08/11 05:57:27;;;;;;;8.43;4.20;;;17.30;99.90;;;;;;5014861;28;20210;-65
2023/08/11 05:59:55;;;;;;;7.78;4.72;;;17.40;99.90;;;;;;5024568;28;20664;-65
2023/08/11 06:02:22;;;;;;;8.70;4.65;;;17.40;99.90;;;;;;5037339;28;20277;-65
2023/08/11 06:04:50;;;;;;;7.05;4.55;;;17.40;99.90;;;;;;5037409;28;20248;-66
2023/08/11 06:07:16;;;;;;;6.80;4.65;;;17.40;99.90;;;;;;5028039;28;20201;-65
2023/08/11 06:09:44;;;;;;;6.50;4.68;;;17.10;99.90;;;;;;5036518;28;20240;-66
2023/08/11 06:12:11;;;;;;;6.18;4.78;;;17.60;99.90;;;;;;5015804;28;20605;-65
2023/08/11 06:14:38;;;;;;;8.60;4.63;;;17.50;99.90;;;;;;5025019;28;20205;-65
2023/08/11 06:17:06;;;;;;;6.57;5.10;;;17.50;99.90;;;;;;5027702;28;20190;-66
2023/08/11 06:19:33;;;;;;;9.30;5.10;;;17.50;99.90;;;;;;5038023;28;20201;-66
2023/08/11 06:22:00;;;;;;;6.32;5.05;;;17.50;99.90;;;;;;5026790;28;20212;-65
2023/08/11 06:24:29;;;;;;;7.35;4.88;;;17.50;99.90;;;;;;5035660;28;20202;-66
2023/08/11 06:26:56;;;;;;;6.20;4.57;;;17.50;99.90;;;;;;5031793;28;20201;-65
2023/08/11 06:29:23;;;;;;;10.02;4.72;;;17.50;99.90;;;;;;5006810;28;20232;-65
2023/08/11 06:31:50;;;;;;;5.43;4.93;;;17.60;99.90;;;;;;5031770;28;20206;-66
2023/08/11 06:34:18;;;;;;;5.90;5.03;;;17.60;99.90;;;;;;5033385;28;20215;-65
2023/08/11 06:36:46;;;;;;;10.93;4.97;;;17.70;99.90;;;;;;5029016;28;20189;-66
2023/08/11 06:39:13;;;;;;;5.22;4.22;;;17.70;99.90;;;;;;5033063;28;20213;-65
2023/08/11 06:41:40;;;;;;;7.43;4.65;;;17.80;99.90;;;;;;5034658;28;20202;-66
2023/08/11 06:44:07;;;;;;;7.28;5.32;;;17.80;99.90;;;;;;5007434;28;20233;-65
2023/08/11 06:46:34;;;;;;;7.55;5.07;;;17.80;99.90;;;;;;5029378;28;20202;-65
2023/08/11 06:49:02;;;;;;;5.43;4.90;;;17.90;99.90;;;;;;5029771;28;20218;-65
2023/08/11 06:51:30;;;;;;;8.02;5.60;;;17.90;99.90;;;;;;5032897;28;20189;-65
2023/08/11 06:53:57;;;;;;;8.15;5.30;;;18.00;99.90;;;;;;5019629;28;20679;-65
2023/08/11 06:56:24;;;;;;;6.85;5.05;;;18.00;99.90;;;;;;5035857;28;20194;-65
2023/08/11 06:58:52;;;;;;;7.18;5.00;;;;;;;;;;5007159;28;20225;-65
2023/08/11 07:01:19;;;;;;;8.30;5.25;;;18.10;99.90;;;;;;5033564;28;20198;-65
2023/08/11 07:03:46;;;;;;;8.95;5.35;;;18.10;99.90;;;;;;5030738;28;20786;-65
2023/08/11 07:06:12;;;;;;;8.35;5.35;;;18.20;99.90;;;;;;5033086;28;20194;-65
2023/08/11 07:08:42;;;;;;;7.47;5.25;;;18.20;99.90;;;;;;5024641;28;20198;-66
2023/08/11 07:11:09;;;;;;;6.43;5.72;;;18.30;99.90;;;;;;5032612;28;20322;-65
2023/08/11 07:13:36;;;;;;;12.68;6.32;;;18.30;99.90;;;;;;5019806;28;20714;-65
2023/08/11 07:16:02;;;;;;;9.45;5.30;;;18.40;99.90;;;;;;5019963;28;20211;-66
2023/08/11 07:18:29;;;;;;;9.70;5.72;;;18.30;99.90;;;;;;5033774;28;20198;-65
2023/08/11 07:20:56;;;;;;;10.60;5.80;;;18.40;99.90;;;;;;5030980;28;20206;-66
2023/08/11 07:23:23;;;;;;;10.20;5.63;;;18.40;99.90;;;;;;5029634;28;20213;-65
2023/08/11 07:25:51;;;;;;;6.30;5.65;;;18.50;99.90;;;;;;5030061;28;20197;-66
2023/08/11 07:28:17;;;;;;;8.75;6.50;;;18.50;99.90;;;;;;5032625;28;20693;-65
2023/08/11 07:30:44;;;;;;;7.45;5.60;;;18.60;99.90;;;;;;5004220;28;20694;-65
2023/08/11 07:33:11;;;;;;;6.97;5.90;;;18.70;99.90;;;;;;5031912;28;20205;-65
2023/08/11 07:35:38;;;;;;;11.48;5.30;;;18.80;99.90;;;;;;5032350;28;20225;-66
2023/08/11 07:38:06;;;;;;;8.70;4.88;;;18.80;99.90;;;;;;5027831;28;20206;-65
2023/08/11 07:40:32;;;;;;;10.00;5.22;;;18.90;99.90;;;;;;5032929;28;20199;-66
2023/08/11 07:43:01;;;;;;;5.88;5.20;;;18.80;99.90;;;;;;5033303;28;21162;-66
2023/08/11 07:45:28;;;;;;;6.25;4.35;;;18.90;99.90;;;;;;5013902;28;20767;-66
2023/08/11 07:47:55;;;;;;;5.97;4.43;;;18.90;99.90;;;;;;5020428;28;20200;-66
2023/08/11 07:50:21;;;;;;;7.57;4.00;;;19.00;99.90;;;;;;5032419;28;20230;-65
2023/08/11 07:52:48;;;;;;;4.95;4.30;;;19.00;99.90;;;;;;5031906;28;20197;-66
2023/08/11 07:55:15;;;;;;;9.52;4.22;;;19.00;99.90;;;;;;5028034;28;20210;-65
2023/08/11 07:57:42;;;;;;;8.70;4.47;;;19.10;99.90;;;;;;5037618;28;20219;-66
2023/08/11 08:00:16;;;;;;;5.53;3.72;;;19.20;99.90;;;;;;5030883;28;20204;-65
2023/08/11 08:02:44;;;;;;;5.25;3.90;;;19.30;99.90;;;;;;5012592;28;20212;-66
2023/08/11 08:05:11;;;;;;;4.00;3.60;;;19.30;99.90;;;;;;5032620;28;20648;-65
2023/08/11 08:07:38;;;;;;;4.07;3.05;;;19.30;99.90;;;;;;5034343;28;20209;-66
2023/08/11 08:10:08;;;;;;;4.18;3.35;;;19.20;99.90;;;;;;5024051;28;20244;-65
2023/08/11 08:12:36;;;;;;;7.25;3.15;;;19.30;99.90;;;;;;5034033;28;20226;-65
2023/08/11 08:15:04;;;;;;;3.63;3.00;;;19.40;99.90;;;;;;5030838;28;20206;-65
2023/08/11 08:17:33;;;;;;;2.95;2.60;;;19.40;99.90;;;;;;5016006;28;20296;-66
2023/08/11 08:20:00;;;;;;;3.38;2.70;;;19.40;99.90;;;;;;5027250;28;20197;-66
2023/08/11 08:22:27;;;;;;;4.22;2.80;;;19.50;99.90;;;;;;5031451;28;20213;-65
2023/08/11 08:24:54;;;;;;;5.25;2.70;;;19.50;99.90;;;;;;5029153;28;20194;-65
2023/08/11 08:27:24;;;;;;;3.85;2.88;;;19.60;99.90;;;;;;5024790;28;20205;-65
2023/08/11 08:29:52;;;;;;;3.45;2.22;;;19.70;99.90;;;;;;5031275;28;20319;-65
2023/08/11 08:32:19;;;;;;;4.50;2.40;;;19.70;99.90;;;;;;5031159;28;20200;-66
2023/08/11 08:34:49;;;;;;;4.97;2.33;;;19.80;99.90;;;;;;5009272;28;20240;-65
2023/08/11 08:37:17;;;;;;;4.63;2.25;;;19.80;99.90;;;;;;5030944;28;20210;-65
2023/08/11 08:39:44;;;;;;;2.65;2.30;;;20.00;99.90;;;;;;5027391;28;20202;-65
2023/08/11 08:42:13;;;;;;;2.85;2.50;;;20.00;99.90;;;;;;5027975;28;20236;-65
2023/08/11 08:44:40;;;;;;;2.67;1.83;;;20.10;99.90;;;;;;5029748;28;20214;-66
2023/08/11 08:47:09;;;;;;;1.98;1.42;;;20.00;99.90;;;;;;5030475;28;20195;-65
2023/08/11 08:49:37;;;;;;;2.20;1.35;;;20.10;99.90;;;;;;5008490;28;20228;-66
2023/08/11 08:52:06;;;;;;;1.90;1.50;;;20.10;99.90;;;;;;5035040;28;20227;-66
2023/08/11 08:54:33;;;;;;;1.50;1.30;;;20.20;99.90;;;;;;5027438;28;20206;-65
2023/08/11 08:57:01;;;;;;;1.88;1.38;;;20.20;99.90;;;;;;5030302;28;20198;-65
2023/08/11 08:59:28;;;;;;;2.05;1.50;;;20.20;99.90;;;;;;5020022;28;20671;-65
2023/08/11 09:01:56;;;;;;;2.28;1.55;;;20.20;99.90;;;;;;5029871;28;20199;-66
2023/08/11 09:04:23;;;;;;;1.88;1.40;;;20.30;99.90;;;;;;5010134;28;20244;-65
2023/08/11 09:06:52;;;;;;;1.50;1.40;;;20.30;99.90;;;;;;5028627;28;20197;-66
2023/08/11 09:09:21;;;;;;;2.40;1.23;;;20.30;99.90;;;;;;5032466;28;20204;-66
2023/08/11 09:11:49;;;;;;;3.40;1.20;;;19.30;99.90;;;;;;5030372;28;20233;-66
2023/08/11 09:14:16;;;;;;;1.73;1.48;;;20.40;99.90;;;;;;5029075;28;20279;-65
2023/08/11 09:16:43;;;;;;;1.45;1.20;;;20.50;99.90;;;;;;5025303;28;20222;-65
2023/08/11 09:19:12;;;;;;;2.38;1.17;;;20.50;99.90;;;;;;5032642;28;20200;-65
2023/08/11 09:21:42;;;;;;;1.48;1.20;;;20.50;99.90;;;;;;5008062;28;20202;-65
2023/08/11 09:24:10;;;;;;;1.67;1.40;;;20.50;99.90;;;;;;5030715;28;20256;-66
2023/08/11 09:26:41;;;;;;;1.13;1.08;;;20.60;99.90;;;;;;5028668;28;20922;-66
2023/08/11 09:29:08;;;;;;;2.97;1.50;;;20.60;99.90;;;;;;5028150;28;20201;-66
2023/08/11 09:31:35;;;;;;;1.88;1.10;;;20.70;99.90;;;;;;5030289;28;20320;-66
2023/08/11 09:34:12;;;;;;;1.42;1.30;;;20.70;99.90;;;;;;5032323;28;20297;-66
2023/08/11 09:36:40;;;;;;;1.23;1.13;;;20.90;99.90;;;;;;5013765;28;20217;-66
2023/08/11 09:39:07;;;;;;;2.63;1.30;;;21.90;99.90;;;;;;5030057;28;20209;-66
2023/08/11 09:41:41;;;;;;;1.25;1.15;;;21.00;99.90;;;;;;5028632;28;20206;-66
2023/08/11 09:44:08;;;;;;;2.63;1.00;;;21.00;99.90;;;;;;5037296;28;20289;-66
2023/08/11 09:46:37;;;;;;;2.15;1.23;;;21.10;99.90;;;;;;5027167;28;20216;-66
2023/08/11 09:49:04;;;;;;;1.75;1.27;;;21.10;99.90;;;;;;5035691;28;20211;-66
2023/08/11 09:51:33;;;;;;;1.20;1.10;;;21.30;99.90;;;;;;5009916;28;20233;-66
2023/08/11 09:54:04;;;;;;;2.97;1.00;;;21.30;99.90;;;;;;5038996;28;21045;-66
2023/08/11 09:56:34;;;;;;;1.42;1.33;;;21.40;99.90;;;;;;5032155;28;20198;-66
2023/08/11 09:59:04;;;;;;;1.67;1.40;;;21.40;99.90;;;;;;5036090;28;20205;-66
2023/08/11 10:01:34;;;;;;;2.55;1.38;;;21.60;99.90;;;;;;5026141;28;20206;-66
2023/08/11 10:04:07;;;;;;;2.63;1.25;;;21.60;99.90;;;;;;5033849;28;21465;-66
2023/08/11 10:06:36;;;;;;;1.30;1.10;;;21.70;99.90;;;;;;5011919;28;20655;-66
2023/08/11 10:09:04;;;;;;;1.95;1.17;;;21.70;99.90;;;;;;5026348;28;20198;-66
2023/08/11 10:11:35;;;;;;;1.23;1.13;;;21.70;99.90;;;;;;5031183;28;20230;-66
2023/08/11 10:14:04;;;;;;;1.75;1.30;;;21.70;99.90;;;;;;5033872;28;20194;-67
2023/08/11 10:16:32;;;;;;;4.82;1.50;;;21.70;99.90;;;;;;5035162;28;20572;-66
2023/08/11 10:19:00;;;;;;;4.07;1.23;;;21.80;99.90;;;;;;5021119;28;20625;-66
2023/08/11 10:21:27;;;;;;;3.45;1.40;;;21.90;99.90;;;;;;5034990;28;20222;-66
2023/08/11 10:23:54;;;;;;;1.60;1.23;;;21.90;99.90;;;;;;5015363;28;20212;-66
2023/08/11 10:26:22;;;;;;;1.40;1.17;;;22.00;99.90;;;;;;5030395;28;20194;-67
2023/08/11 10:28:50;;;;;;;1.60;1.50;;;22.00;99.90;;;;;;5032539;28;20206;-66
2023/08/11 10:31:18;;;;;;;1.63;1.30;;;22.00;99.90;;;;;;5033256;28;20221;-67
2023/08/11 10:33:52;;;;;;;1.50;1.38;;;22.00;99.90;;;;;;5035853;28;20205;-66
2023/08/11 10:36:23;;;;;;;1.98;1.35;;;21.90;99.90;;;;;;5032997;28;20208;-66
2023/08/11 10:39:01;;;;;;;1.85;1.35;;;22.00;99.90;;;;;;5015865;28;20218;-66
2023/08/11 10:41:28;;;;;;;3.42;1.30;;;22.10;99.90;;;;;;5025921;28;20306;-67
2023/08/11 10:43:56;;;;;;;1.42;1.33;;;22.10;99.90;;;;;;5034977;28;20221;-67
2023/08/11 10:46:26;;;;;;;8.15;1.48;;;22.10;99.90;;;;;;5033675;28;20201;-67
2023/08/11 10:48:54;;;;;;;1.38;1.27;;;22.10;99.90;;;;;;5035515;28;20216;-66
2023/08/11 10:51:26;;;;;;;1.55;1.30;;;22.20;99.90;;;;;;5032752;28;20226;-66
2023/08/11 10:53:55;;;;;;;2.30;1.52;;;22.30;99.90;;;;;;5017527;28;20205;-67
2023/08/11 10:56:28;;;;;;;3.25;1.40;;;22.30;99.90;;;;;;5033653;28;20295;-66
2023/08/11 10:59:08;;;;;;;1.55;1.40;;;22.30;99.90;;;;;;5035469;28;20825;-66
2023/08/11 11:01:39;;;;;;;1.50;1.40;;;22.30;99.90;;;;;;5036129;28;20206;-66
2023/08/11 11:04:07;;;;;;;6.40;1.50;;;22.30;99.90;;;;;;5021225;28;20605;-66
2023/08/11 11:06:34;;;;;;;2.72;1.80;;;22.50;99.90;;;;;;5032635;28;20194;-66
2023/08/11 11:09:03;;;;;;;1.40;1.30;;;22.50;99.90;;;;;;5014730;28;20220;-70
2023/08/11 11:11:31;;;;;;;3.20;1.88;;;22.50;99.90;;;;;;5031986;28;20221;-66
2023/08/11 11:13:59;;;;;;;1.60;1.50;;;22.60;99.90;;;;;;5034128;28;20200;-66
2023/08/11 11:16:25;;;;;;;4.65;1.40;;;22.50;99.90;;;;;;5033098;28;21213;-66
2023/08/11 11:18:54;;;;;;;3.28;1.40;;;22.60;99.90;;;;;;5031582;28;20230;-66
2023/08/11 11:21:21;;;;;;;1.80;1.30;;;22.50;99.90;;;;;;5026635;28;20205;-66
2023/08/11 11:23:49;;;;;;;1.45;1.30;;;22.50;99.90;;;;;;5035386;28;20201;-66
2023/08/11 11:26:22;;;;;;;6.35;1.70;;;22.60;99.90;;;;;;5011272;28;20945;-66
2023/08/11 11:28:49;;;;;;;1.63;1.40;;;22.60;99.90;;;;;;5033750;28;20295;-67
2023/08/11 11:31:16;;;;;;;4.00;1.60;;;22.70;99.90;;;;;;5033560;28;20236;-66
2023/08/11 11:33:42;;;;;;;2.40;1.45;;;22.70;99.90;;;;;;5032151;28;20190;-66
2023/08/11 11:36:11;;;;;;;2.22;1.63;;;22.80;99.90;;;;;;5024857;28;20291;-67
2023/08/11 11:38:38;;;;;;;3.60;1.65;;;22.80;99.90;;;;;;5031596;28;20660;-66
2023/08/11 11:41:09;;;;;;;2.33;1.60;;;22.90;99.90;;;;;;5009894;28;20210;-66
2023/08/11 11:43:36;;;;;;;1.70;1.60;;;22.80;99.90;;;;;;5035984;28;20225;-66
2023/08/11 11:46:03;;;;;;;1.73;1.40;;;22.80;99.90;;;;;;5030025;28;20205;-66
2023/08/11 11:48:30;;;;;;;1.95;1.70;;;22.80;99.90;;;;;;5030165;28;20297;-66
2023/08/11 11:50:57;;;;;;;1.83;1.60;;;22.90;99.90;;;;;;5024115;28;20229;-66
2023/08/11 11:53:26;;;;;;;2.63;1.60;;;22.90;99.90;;;;;;5028559;28;20198;-66
2023/08/11 11:55:53;;;;;;;1.92;1.67;;;22.90;99.90;;;;;;5012259;28;20214;-67
2023/08/11 11:58:21;;;;;;;2.97;1.42;;;23.10;99.90;;;;;;5029690;28;20194;-66
2023/08/11 12:00:48;;;;;;;4.25;2.33;;;23.00;99.90;;;;;;5030829;28;20209;-66
2023/08/11 12:03:15;;;;;;;1.70;1.50;;;23.00;99.90;;;;;;5028973;28;20230;-66
2023/08/11 12:05:42;;;;;;;3.25;1.77;;;22.90;99.90;;;;;;5028333;28;20194;-67
2023/08/11 12:08:20;;;;;;;4.30;1.80;;;23.00;99.90;;;;;;5033735;28;20336;-68
2023/08/11 12:10:49;;;;;;;2.70;1.45;;;23.00;99.90;;;;;;5033445;28;20221;-66
2023/08/11 12:13:17;;;;;;;1.35;1.25;;;23.10;99.90;;;;;;5011228;28;20212;-67
2023/08/11 12:15:48;;;;;;;1.50;1.40;;;23.20;99.90;;;;;;5032972;28;20197;-66
2023/08/11 12:18:15;;;;;;;2.35;1.60;;;23.20;99.90;;;;;;5030059;28;20213;-67
2023/08/11 12:20:42;;;;;;;1.67;1.40;;;23.20;99.90;;;;;;5031167;28;20666;-66
2023/08/11 12:23:09;;;;;;;1.90;1.70;;;23.20;99.90;;;;;;5024054;28;20205;-66
2023/08/11 12:25:35;;;;;;;2.15;1.90;;;23.20;99.90;;;;;;5033672;28;20212;-67
2023/08/11 12:28:04;;;;;;;8.52;1.73;;;23.30;99.90;;;;;;5009723;28;20561;-67
2023/08/11 12:30:31;;;;;;;2.65;1.63;;;23.30;99.90;;;;;;5032298;28;20285;-67
2023/08/11 12:32:58;;;;;;;2.95;1.77;;;;;;;;;;5032114;28;20225;-66
2023/08/11 12:35:25;;;;;;;2.58;1.40;;;23.40;99.90;;;;;;5029816;28;20200;-66
2023/08/11 12:37:53;;;;;;;1.42;1.33;;;;;;;;;;5030500;28;20214;-67
2023/08/11 12:40:21;;;;;;;2.35;1.60;;;23.40;99.90;;;;;;5024856;28;20750;-67
2023/08/11 12:42:48;;;;;;;1.45;1.35;;;23.50;99.90;;;;;;5031004;28;20202;-67
2023/08/11 12:45:16;;;;;;;2.20;1.40;;;23.60;99.90;;;;;;5010809;28;20250;-67
2023/08/11 12:47:43;;;;;;;1.50;1.40;;;23.60;99.90;;;;;;5032969;28;20209;-66
2023/08/11 12:50:10;;;;;;;1.52;1.30;;;23.70;99.90;;;;;;5028905;28;20201;-67